sensor_id;sensor_type;location;lat;lon;timestamp;pressure;altitude;pressure_sealevel;temperature
80680;BMP280;70043;51.982;-8.514;2024-02-21T00:01:51;98918.59;;;10.70
80680;BMP280;70043;51.982;-8.514;2024-02-21T00:04:18;98909.94;;;10.71
80680;BMP280;70043;51.982;-8.514;2024-02-21T00:06:45;98910.06;;;10.76
80680;BMP280;70043;51.982;-8.514;2024-02-21T00:09:12;98899.94;;;10.69
80680;BMP280;70043;51.982;-8.514;2024-02-21T00:11:39;98875.00;;;10.71
80680;BMP280;70043;51.982;-8.514;2024-02-21T00:14:07;98888.03;;;10.63
80680;BMP280;70043;51.982;-8.514;2024-02-21T00:16:34;98889.66;;;10.76
80680;BMP280;70043;51.982;-8.514;2024-02-21T00:19:01;98862.44;;;10.70
80680;BMP280;70043;51.982;-8.514;2024-02-21T00:21:29;98840.06;;;10.72
80680;BMP280;70043;51.982;-8.514;2024-02-21T00:23:56;98841.03;;;10.71
80680;BMP280;70043;51.982;-8.514;2024-02-21T00:26:23;98839.00;;;10.80
80680;BMP280;70043;51.982;-8.514;2024-02-21T00:28:51;98834.09;;;10.78
80680;BMP280;70043;51.982;-8.514;2024-02-21T00:31:19;98822.47;;;10.82
80680;BMP280;70043;51.982;-8.514;2024-02-21T00:33:46;98819.34;;;10.80
80680;BMP280;70043;51.982;-8.514;2024-02-21T00:36:13;98814.66;;;10.77
80680;BMP280;70043;51.982;-8.514;2024-02-21T00:38:40;98800.81;;;10.85
80680;BMP280;70043;51.982;-8.514;2024-02-21T00:41:07;98798.34;;;10.78
80680;BMP280;70043;51.982;-8.514;2024-02-21T00:43:34;98790.28;;;10.81
80680;BMP280;70043;51.982;-8.514;2024-02-21T00:46:01;98778.81;;;10.84
80680;BMP280;70043;51.982;-8.514;2024-02-21T00:48:30;98770.38;;;10.83
80680;BMP280;70043;51.982;-8.514;2024-02-21T00:50:57;98755.25;;;10.88
80680;BMP280;70043;51.982;-8.514;2024-02-21T00:53:24;98745.56;;;10.90
80680;BMP280;70043;51.982;-8.514;2024-02-21T00:55:51;98725.59;;;10.87
80680;BMP280;70043;51.982;-8.514;2024-02-21T00:58:18;98710.84;;;10.89
80680;BMP280;70043;51.982;-8.514;2024-02-21T01:00:45;98701.88;;;10.98
80680;BMP280;70043;51.982;-8.514;2024-02-21T01:03:12;98696.63;;;10.93
80680;BMP280;70043;51.982;-8.514;2024-02-21T01:05:40;98698.66;;;11.03
80680;BMP280;70043;51.982;-8.514;2024-02-21T01:08:07;98684.66;;;11.05
80680;BMP280;70043;51.982;-8.514;2024-02-21T01:10:34;98662.47;;;11.06
80680;BMP280;70043;51.982;-8.514;2024-02-21T01:13:01;98645.16;;;11.08
80680;BMP280;70043;51.982;-8.514;2024-02-21T01:15:28;98624.28;;;11.11
80680;BMP280;70043;51.982;-8.514;2024-02-21T01:17:55;98606.66;;;11.09
80680;BMP280;70043;51.982;-8.514;2024-02-21T01:20:22;98602.31;;;11.10
80680;BMP280;70043;51.982;-8.514;2024-02-21T01:22:51;98594.09;;;11.08
80680;BMP280;70043;51.982;-8.514;2024-02-21T01:25:18;98591.09;;;11.11
80680;BMP280;70043;51.982;-8.514;2024-02-21T01:27:45;98580.56;;;11.19
80680;BMP280;70043;51.982;-8.514;2024-02-21T01:30:12;98557.22;;;11.15
80680;BMP280;70043;51.982;-8.514;2024-02-21T01:32:39;98547.56;;;11.17
80680;BMP280;70043;51.982;-8.514;2024-02-21T01:35:08;98525.66;;;11.21
80680;BMP280;70043;51.982;-8.514;2024-02-21T01:37:35;98526.69;;;11.20
80680;BMP280;70043;51.982;-8.514;2024-02-21T01:40:04;98510.25;;;11.16
80680;BMP280;70043;51.982;-8.514;2024-02-21T01:42:31;98504.03;;;11.24
80680;BMP280;70043;51.982;-8.514;2024-02-21T01:44:58;98490.81;;;11.27
80680;BMP280;70043;51.982;-8.514;2024-02-21T01:47:25;98482.19;;;11.28
80680;BMP280;70043;51.982;-8.514;2024-02-21T01:49:52;98476.28;;;11.28
80680;BMP280;70043;51.982;-8.514;2024-02-21T01:52:19;98457.38;;;11.29
80680;BMP280;70043;51.982;-8.514;2024-02-21T01:54:47;98435.50;;;11.33
80680;BMP280;70043;51.982;-8.514;2024-02-21T01:57:16;98420.38;;;11.31
80680;BMP280;70043;51.982;-8.514;2024-02-21T01:59:43;98427.38;;;11.36
80680;BMP280;70043;51.982;-8.514;2024-02-21T02:02:10;98408.47;;;11.37
80680;BMP280;70043;51.982;-8.514;2024-02-21T02:04:38;98389.13;;;11.41
80680;BMP280;70043;51.982;-8.514;2024-02-21T02:07:06;98382.81;;;11.43
80680;BMP280;70043;51.982;-8.514;2024-02-21T02:09:34;98380.00;;;11.45
80680;BMP280;70043;51.982;-8.514;2024-02-21T02:12:01;98350.44;;;11.49
80680;BMP280;70043;51.982;-8.514;2024-02-21T02:14:30;98354.56;;;11.50
80680;BMP280;70043;51.982;-8.514;2024-02-21T02:16:57;98360.66;;;11.49
80680;BMP280;70043;51.982;-8.514;2024-02-21T02:19:24;98343.88;;;11.53
80680;BMP280;70043;51.982;-8.514;2024-02-21T02:21:54;98333.88;;;11.51
80680;BMP280;70043;51.982;-8.514;2024-02-21T02:24:24;98324.19;;;11.53
80680;BMP280;70043;51.982;-8.514;2024-02-21T02:26:52;98298.22;;;11.56
80680;BMP280;70043;51.982;-8.514;2024-02-21T02:29:19;98279.03;;;11.59
80680;BMP280;70043;51.982;-8.514;2024-02-21T02:31:46;98273.50;;;11.62
80680;BMP280;70043;51.982;-8.514;2024-02-21T02:34:13;98280.94;;;11.63
80680;BMP280;70043;51.982;-8.514;2024-02-21T02:36:41;98272.50;;;11.63
80680;BMP280;70043;51.982;-8.514;2024-02-21T02:39:08;98273.53;;;11.67
80680;BMP280;70043;51.982;-8.514;2024-02-21T02:41:36;98268.97;;;11.69
80680;BMP280;70043;51.982;-8.514;2024-02-21T02:44:03;98249.09;;;11.71
80680;BMP280;70043;51.982;-8.514;2024-02-21T02:46:30;98239.41;;;11.73
80680;BMP280;70043;51.982;-8.514;2024-02-21T02:48:57;98232.50;;;11.74
80680;BMP280;70043;51.982;-8.514;2024-02-21T02:51:24;98201.13;;;11.78
80680;BMP280;70043;51.982;-8.514;2024-02-21T02:53:51;98191.69;;;11.79
80680;BMP280;70043;51.982;-8.514;2024-02-21T02:56:18;98169.44;;;11.79
80680;BMP280;70043;51.982;-8.514;2024-02-21T02:58:47;98177.13;;;11.79
80680;BMP280;70043;51.982;-8.514;2024-02-21T03:01:14;98165.63;;;11.82
80680;BMP280;70043;51.982;-8.514;2024-02-21T03:03:41;98152.63;;;11.83
80680;BMP280;70043;51.982;-8.514;2024-02-21T03:06:08;98138.59;;;11.86
80680;BMP280;70043;51.982;-8.514;2024-02-21T03:08:34;98127.34;;;11.87
80680;BMP280;70043;51.982;-8.514;2024-02-21T03:11:02;98108.19;;;11.89
80680;BMP280;70043;51.982;-8.514;2024-02-21T03:13:29;98102.09;;;11.90
80680;BMP280;70043;51.982;-8.514;2024-02-21T03:15:57;98092.63;;;11.91
80680;BMP280;70043;51.982;-8.514;2024-02-21T03:18:24;98082.19;;;11.92
80680;BMP280;70043;51.982;-8.514;2024-02-21T03:21:05;98077.06;;;11.92
80680;BMP280;70043;51.982;-8.514;2024-02-21T03:23:32;98065.84;;;11.93
80680;BMP280;70043;51.982;-8.514;2024-02-21T03:25:59;98047.41;;;11.91
80680;BMP280;70043;51.982;-8.514;2024-02-21T03:28:26;98049.47;;;11.94
80680;BMP280;70043;51.982;-8.514;2024-02-21T03:30:53;98044.88;;;11.96
80680;BMP280;70043;51.982;-8.514;2024-02-21T03:33:22;98038.75;;;11.97
80680;BMP280;70043;51.982;-8.514;2024-02-21T03:35:49;98036.19;;;11.97
80680;BMP280;70043;51.982;-8.514;2024-02-21T03:38:16;98011.41;;;11.98
80680;BMP280;70043;51.982;-8.514;2024-02-21T03:40:43;98006.28;;;11.98
80680;BMP280;70043;51.982;-8.514;2024-02-21T03:43:10;98011.41;;;11.98
80680;BMP280;70043;51.982;-8.514;2024-02-21T03:45:37;97988.38;;;11.98
80680;BMP280;70043;51.982;-8.514;2024-02-21T03:48:05;97973.34;;;12.01
80680;BMP280;70043;51.982;-8.514;2024-02-21T03:50:34;97972.56;;;12.01
80680;BMP280;70043;51.982;-8.514;2024-02-21T03:53:01;97975.13;;;12.01
80680;BMP280;70043;51.982;-8.514;2024-02-21T03:55:28;97959.03;;;12.00
80680;BMP280;70043;51.982;-8.514;2024-02-21T03:57:55;97960.56;;;12.01
80680;BMP280;70043;51.982;-8.514;2024-02-21T04:00:23;97952.63;;;12.03
80680;BMP280;70043;51.982;-8.514;2024-02-21T04:02:50;97938.56;;;12.00
80680;BMP280;70043;51.982;-8.514;2024-02-21T04:05:17;97924.78;;;12.01
80680;BMP280;70043;51.982;-8.514;2024-02-21T04:07:46;97913.78;;;12.01
80680;BMP280;70043;51.982;-8.514;2024-02-21T04:10:13;97904.06;;;12.03
80680;BMP280;70043;51.982;-8.514;2024-02-21T04:12:40;97886.16;;;12.03
80680;BMP280;70043;51.982;-8.514;2024-02-21T04:15:07;97855.75;;;12.01
80680;BMP280;70043;51.982;-8.514;2024-02-21T04:17:34;97856.22;;;12.03
80680;BMP280;70043;51.982;-8.514;2024-02-21T04:20:03;97837.31;;;12.04
80680;BMP280;70043;51.982;-8.514;2024-02-21T04:22:31;97839.09;;;12.04
80680;BMP280;70043;51.982;-8.514;2024-02-21T04:25:00;97822.28;;;12.08
80680;BMP280;70043;51.982;-8.514;2024-02-21T04:27:27;97821.22;;;12.09
80680;BMP280;70043;51.982;-8.514;2024-02-21T04:29:55;97810.50;;;12.07
80680;BMP280;70043;51.982;-8.514;2024-02-21T04:32:22;97807.16;;;12.06
80680;BMP280;70043;51.982;-8.514;2024-02-21T04:34:49;97792.84;;;12.05
80680;BMP280;70043;51.982;-8.514;2024-02-21T04:37:15;97797.19;;;12.05
80680;BMP280;70043;51.982;-8.514;2024-02-21T04:39:42;97777.00;;;12.08
80680;BMP280;70043;51.982;-8.514;2024-02-21T04:42:11;97769.84;;;12.10
80680;BMP280;70043;51.982;-8.514;2024-02-21T04:44:38;97758.06;;;12.09
80680;BMP280;70043;51.982;-8.514;2024-02-21T04:47:05;97760.41;;;12.11
80680;BMP280;70043;51.982;-8.514;2024-02-21T04:49:33;97765.25;;;12.07
80680;BMP280;70043;51.982;-8.514;2024-02-21T04:52:00;97749.91;;;12.07
80680;BMP280;70043;51.982;-8.514;2024-02-21T04:54:27;97745.28;;;12.09
80680;BMP280;70043;51.982;-8.514;2024-02-21T04:56:54;97738.38;;;12.10
80680;BMP280;70043;51.982;-8.514;2024-02-21T04:59:22;97717.44;;;12.08
80680;BMP280;70043;51.982;-8.514;2024-02-21T05:01:49;97714.38;;;12.11
80680;BMP280;70043;51.982;-8.514;2024-02-21T05:04:16;97716.16;;;12.10
80680;BMP280;70043;51.982;-8.514;2024-02-21T05:06:43;97691.31;;;12.06
80680;BMP280;70043;51.982;-8.514;2024-02-21T05:09:10;97693.66;;;12.07
80680;BMP280;70043;51.982;-8.514;2024-02-21T05:11:37;97673.66;;;12.04
80680;BMP280;70043;51.982;-8.514;2024-02-21T05:14:05;97677.53;;;12.07
80680;BMP280;70043;51.982;-8.514;2024-02-21T05:16:33;97676.53;;;12.08
80680;BMP280;70043;51.982;-8.514;2024-02-21T05:19:00;97662.69;;;12.09
80680;BMP280;70043;51.982;-8.514;2024-02-21T05:21:29;97661.19;;;12.08
80680;BMP280;70043;51.982;-8.514;2024-02-21T05:23:56;97650.69;;;12.09
80680;BMP280;70043;51.982;-8.514;2024-02-21T05:26:24;97651.44;;;12.10
80680;BMP280;70043;51.982;-8.514;2024-02-21T05:28:52;97629.22;;;12.10
80680;BMP280;70043;51.982;-8.514;2024-02-21T05:31:19;97638.44;;;12.11
80680;BMP280;70043;51.982;-8.514;2024-02-21T05:33:48;97628.19;;;12.11
80680;BMP280;70043;51.982;-8.514;2024-02-21T05:36:15;97610.03;;;12.13
80680;BMP280;70043;51.982;-8.514;2024-02-21T05:38:42;97611.06;;;12.12
80680;BMP280;70043;51.982;-8.514;2024-02-21T05:41:09;97600.56;;;12.13
80680;BMP280;70043;51.982;-8.514;2024-02-21T05:43:36;97576.78;;;12.13
80680;BMP280;70043;51.982;-8.514;2024-02-21T05:46:03;97582.94;;;12.17
80680;BMP280;70043;51.982;-8.514;2024-02-21T05:48:31;97574.25;;;12.18
80680;BMP280;70043;51.982;-8.514;2024-02-21T05:51:01;97572.97;;;12.21
80680;BMP280;70043;51.982;-8.514;2024-02-21T05:53:28;97557.13;;;12.19
80680;BMP280;70043;51.982;-8.514;2024-02-21T05:55:55;97559.66;;;12.24
80680;BMP280;70043;51.982;-8.514;2024-02-21T05:58:22;97556.84;;;12.25
80680;BMP280;70043;51.982;-8.514;2024-02-21T06:00:49;97554.53;;;12.24
80680;BMP280;70043;51.982;-8.514;2024-02-21T06:03:16;97537.41;;;12.24
80680;BMP280;70043;51.982;-8.514;2024-02-21T06:05:43;97533.59;;;12.27
80680;BMP280;70043;51.982;-8.514;2024-02-21T06:08:11;97542.28;;;12.26
80680;BMP280;70043;51.982;-8.514;2024-02-21T06:10:38;97543.34;;;12.30
80680;BMP280;70043;51.982;-8.514;2024-02-21T06:13:05;97525.44;;;12.30
80680;BMP280;70043;51.982;-8.514;2024-02-21T06:15:33;97511.06;;;12.34
80680;BMP280;70043;51.982;-8.514;2024-02-21T06:18:00;97520.28;;;12.35
80680;BMP280;70043;51.982;-8.514;2024-02-21T06:20:26;97506.47;;;12.36
80680;BMP280;70043;51.982;-8.514;2024-02-21T06:22:54;97510.31;;;12.38
80680;BMP280;70043;51.982;-8.514;2024-02-21T06:25:22;97492.88;;;12.40
80680;BMP280;70043;51.982;-8.514;2024-02-21T06:27:49;97481.38;;;12.43
80680;BMP280;70043;51.982;-8.514;2024-02-21T06:30:16;97487.53;;;12.42
80680;BMP280;70043;51.982;-8.514;2024-02-21T06:32:43;97488.03;;;12.44
80680;BMP280;70043;51.982;-8.514;2024-02-21T06:35:10;97492.13;;;12.45
80680;BMP280;70043;51.982;-8.514;2024-02-21T06:37:37;97485.22;;;12.45
80680;BMP280;70043;51.982;-8.514;2024-02-21T06:40:06;97483.19;;;12.47
80680;BMP280;70043;51.982;-8.514;2024-02-21T06:42:34;97481.13;;;12.49
80680;BMP280;70043;51.982;-8.514;2024-02-21T06:45:01;97472.41;;;12.50
80680;BMP280;70043;51.982;-8.514;2024-02-21T06:47:28;97477.00;;;12.53
80680;BMP280;70043;51.982;-8.514;2024-02-21T06:49:55;97463.19;;;12.54
80680;BMP280;70043;51.982;-8.514;2024-02-21T06:52:22;97463.72;;;12.56
80680;BMP280;70043;51.982;-8.514;2024-02-21T06:54:50;97469.63;;;12.57
80680;BMP280;70043;51.982;-8.514;2024-02-21T06:57:17;97466.00;;;12.58
80680;BMP280;70043;51.982;-8.514;2024-02-21T06:59:45;97460.88;;;12.58
80680;BMP280;70043;51.982;-8.514;2024-02-21T07:02:12;97439.38;;;12.59
80680;BMP280;70043;51.982;-8.514;2024-02-21T07:04:39;97438.09;;;12.61
80680;BMP280;70043;51.982;-8.514;2024-02-21T07:07:06;97431.97;;;12.63
80680;BMP280;70043;51.982;-8.514;2024-02-21T07:09:33;97434.75;;;12.66
80680;BMP280;70043;51.982;-8.514;2024-02-21T07:12:00;97439.09;;;12.66
80680;BMP280;70043;51.982;-8.514;2024-02-21T07:14:28;97437.81;;;12.68
80680;BMP280;70043;51.982;-8.514;2024-02-21T07:16:56;97444.22;;;12.71
80680;BMP280;70043;51.982;-8.514;2024-02-21T07:19:23;97438.06;;;12.72
80680;BMP280;70043;51.982;-8.514;2024-02-21T07:21:50;97449.81;;;12.73
80680;BMP280;70043;51.982;-8.514;2024-02-21T07:24:17;97437.81;;;12.73
80680;BMP280;70043;51.982;-8.514;2024-02-21T07:26:45;97446.00;;;12.75
80680;BMP280;70043;51.982;-8.514;2024-02-21T07:29:12;97452.91;;;12.75
80680;BMP280;70043;51.982;-8.514;2024-02-21T07:31:40;97463.66;;;12.77
80680;BMP280;70043;51.982;-8.514;2024-02-21T07:34:09;97462.63;;;12.78
80680;BMP280;70043;51.982;-8.514;2024-02-21T07:36:36;97472.09;;;12.77
80680;BMP280;70043;51.982;-8.514;2024-02-21T07:39:04;97476.69;;;12.80
80680;BMP280;70043;51.982;-8.514;2024-02-21T07:41:31;97470.00;;;12.79
80680;BMP280;70043;51.982;-8.514;2024-02-21T07:44:00;97468.75;;;12.82
80680;BMP280;70043;51.982;-8.514;2024-02-21T07:46:28;97460.03;;;12.83
80680;BMP280;70043;51.982;-8.514;2024-02-21T07:48:55;97461.59;;;12.84
80680;BMP280;70043;51.982;-8.514;2024-02-21T07:51:27;97461.31;;;12.85
80680;BMP280;70043;51.982;-8.514;2024-02-21T07:53:54;97461.59;;;12.84
80680;BMP280;70043;51.982;-8.514;2024-02-21T07:56:21;97467.94;;;12.86
80680;BMP280;70043;51.982;-8.514;2024-02-21T07:58:48;97461.31;;;12.85
80680;BMP280;70043;51.982;-8.514;2024-02-21T08:01:18;97465.13;;;12.88
80680;BMP280;70043;51.982;-8.514;2024-02-21T08:03:46;97468.44;;;12.88
80680;BMP280;70043;51.982;-8.514;2024-02-21T08:06:13;97472.31;;;12.91
80680;BMP280;70043;51.982;-8.514;2024-02-21T08:08:42;97475.59;;;12.91
80680;BMP280;70043;51.982;-8.514;2024-02-21T08:11:09;97474.59;;;12.92
80680;BMP280;70043;51.982;-8.514;2024-02-21T08:13:36;97486.88;;;12.95
80680;BMP280;70043;51.982;-8.514;2024-02-21T08:16:03;97487.13;;;12.94
80680;BMP280;70043;51.982;-8.514;2024-02-21T08:18:31;97479.47;;;12.94
80680;BMP280;70043;51.982;-8.514;2024-02-21T08:21:01;97481.75;;;12.95
80680;BMP280;70043;51.982;-8.514;2024-02-21T08:23:29;97492.50;;;12.97
80680;BMP280;70043;51.982;-8.514;2024-02-21T08:25:58;97497.63;;;12.97
80680;BMP280;70043;51.982;-8.514;2024-02-21T08:28:25;97506.81;;;12.98
80680;BMP280;70043;51.982;-8.514;2024-02-21T08:30:52;97527.03;;;13.00
80680;BMP280;70043;51.982;-8.514;2024-02-21T08:33:19;97539.59;;;13.01
80680;BMP280;70043;51.982;-8.514;2024-02-21T08:35:50;97530.13;;;13.02
80680;BMP280;70043;51.982;-8.514;2024-02-21T08:38:17;97540.38;;;13.02
80680;BMP280;70043;51.982;-8.514;2024-02-21T08:40:44;97541.91;;;13.03
80680;BMP280;70043;51.982;-8.514;2024-02-21T08:43:12;97536.78;;;13.03
80680;BMP280;70043;51.982;-8.514;2024-02-21T08:45:39;97545.72;;;13.05
80680;BMP280;70043;51.982;-8.514;2024-02-21T08:48:07;97550.81;;;13.05
80680;BMP280;70043;51.982;-8.514;2024-02-21T08:50:34;97541.09;;;13.07
80680;BMP280;70043;51.982;-8.514;2024-02-21T08:53:02;97551.09;;;13.09
80680;BMP280;70043;51.982;-8.514;2024-02-21T08:55:29;97552.88;;;13.08
80680;BMP280;70043;51.982;-8.514;2024-02-21T08:57:56;97567.22;;;13.09
80680;BMP280;70043;51.982;-8.514;2024-02-21T09:00:24;97570.28;;;13.12
80680;BMP280;70043;51.982;-8.514;2024-02-21T09:02:52;97571.06;;;13.12
80680;BMP280;70043;51.982;-8.514;2024-02-21T09:05:21;97566.69;;;13.13
80680;BMP280;70043;51.982;-8.514;2024-02-21T09:07:49;97564.38;;;13.16
80680;BMP280;70043;51.982;-8.514;2024-02-21T09:10:16;97568.75;;;13.16
80680;BMP280;70043;51.982;-8.514;2024-02-21T09:12:43;97571.06;;;13.17
80680;BMP280;70043;51.982;-8.514;2024-02-21T09:15:10;97574.09;;;13.19
80680;BMP280;70043;51.982;-8.514;2024-02-21T09:17:39;97582.06;;;13.23
80680;BMP280;70043;51.982;-8.514;2024-02-21T09:20:07;97589.19;;;13.26
80680;BMP280;70043;51.982;-8.514;2024-02-21T09:22:37;97597.88;;;13.25
80680;BMP280;70043;51.982;-8.514;2024-02-21T09:25:06;97594.56;;;13.29
80680;BMP280;70043;51.982;-8.514;2024-02-21T09:27:33;97592.78;;;13.30
80680;BMP280;70043;51.982;-8.514;2024-02-21T09:30:00;97593.56;;;13.30
80680;BMP280;70043;51.982;-8.514;2024-02-21T09:32:27;97593.28;;;13.32
80680;BMP280;70043;51.982;-8.514;2024-02-21T09:34:56;97618.38;;;13.35
80680;BMP280;70043;51.982;-8.514;2024-02-21T09:37:23;97614.78;;;13.36
80680;BMP280;70043;51.982;-8.514;2024-02-21T09:39:50;97632.19;;;13.39
80680;BMP280;70043;51.982;-8.514;2024-02-21T09:42:20;97632.97;;;13.39
80680;BMP280;70043;51.982;-8.514;2024-02-21T09:44:48;97646.53;;;13.40
80680;BMP280;70043;51.982;-8.514;2024-02-21T09:47:19;97640.66;;;13.39
80680;BMP280;70043;51.982;-8.514;2024-02-21T09:49:49;97653.22;;;13.41
80680;BMP280;70043;51.982;-8.514;2024-02-21T09:52:19;97657.53;;;13.45
80680;BMP280;70043;51.982;-8.514;2024-02-21T09:54:47;97656.50;;;13.46
80680;BMP280;70043;51.982;-8.514;2024-02-21T09:57:15;97673.19;;;13.49
80680;BMP280;70043;51.982;-8.514;2024-02-21T09:59:43;97679.09;;;13.49
80680;BMP280;70043;51.982;-8.514;2024-02-21T10:02:11;97674.69;;;13.50
80680;BMP280;70043;51.982;-8.514;2024-02-21T10:04:39;97675.75;;;13.49
80680;BMP280;70043;51.982;-8.514;2024-02-21T10:07:07;97671.13;;;13.46
80680;BMP280;70043;51.982;-8.514;2024-02-21T10:09:36;97655.22;;;13.44
80680;BMP280;70043;51.982;-8.514;2024-02-21T10:12:09;97663.44;;;13.46
80680;BMP280;70043;51.982;-8.514;2024-02-21T10:14:37;97667.53;;;13.47
80680;BMP280;70043;51.982;-8.514;2024-02-21T10:17:04;97673.41;;;13.52
80680;BMP280;70043;51.982;-8.514;2024-02-21T10:19:34;97667.00;;;13.55
80680;BMP280;70043;51.982;-8.514;2024-02-21T10:22:03;97680.31;;;13.57
80680;BMP280;70043;51.982;-8.514;2024-02-21T10:24:30;97681.34;;;13.56
80680;BMP280;70043;51.982;-8.514;2024-02-21T10:27:06;97681.09;;;13.57
80680;BMP280;70043;51.982;-8.514;2024-02-21T10:29:35;97671.09;;;13.51
80680;BMP280;70043;51.982;-8.514;2024-02-21T10:32:06;97682.88;;;13.52
80680;BMP280;70043;51.982;-8.514;2024-02-21T10:34:34;97681.88;;;13.48
80680;BMP280;70043;51.982;-8.514;2024-02-21T10:37:02;97691.34;;;13.57
80680;BMP280;70043;51.982;-8.514;2024-02-21T10:39:29;97692.09;;;13.68
80680;BMP280;70043;51.982;-8.514;2024-02-21T10:42:00;97686.91;;;13.73
80680;BMP280;70043;51.982;-8.514;2024-02-21T10:44:32;97696.09;;;13.84
80680;BMP280;70043;51.982;-8.514;2024-02-21T10:46:59;97689.91;;;13.90
80680;BMP280;70043;51.982;-8.514;2024-02-21T10:49:27;97703.72;;;13.99
80680;BMP280;70043;51.982;-8.514;2024-02-21T10:51:57;97711.34;;;14.15
80680;BMP280;70043;51.982;-8.514;2024-02-21T10:54:42;97698.53;;;14.10
80680;BMP280;70043;51.982;-8.514;2024-02-21T10:57:12;97715.19;;;14.17
80680;BMP280;70043;51.982;-8.514;2024-02-21T10:59:44;97720.28;;;14.22
80680;BMP280;70043;51.982;-8.514;2024-02-21T11:02:11;97727.94;;;14.27
80680;BMP280;70043;51.982;-8.514;2024-02-21T11:04:38;97734.63;;;14.28
80680;BMP280;70043;51.982;-8.514;2024-02-21T11:07:07;97734.84;;;14.32
80680;BMP280;70043;51.982;-8.514;2024-02-21T11:09:34;97743.56;;;14.36
80680;BMP280;70043;51.982;-8.514;2024-02-21T11:12:03;97741.75;;;14.41
80680;BMP280;70043;51.982;-8.514;2024-02-21T11:14:31;97736.34;;;14.43
80680;BMP280;70043;51.982;-8.514;2024-02-21T11:17:02;97748.88;;;14.44
80680;BMP280;70043;51.982;-8.514;2024-02-21T11:19:30;97762.00;;;14.43
80680;BMP280;70043;51.982;-8.514;2024-02-21T11:21:57;97751.19;;;14.46
80680;BMP280;70043;51.982;-8.514;2024-02-21T11:24:27;97753.00;;;14.45
80680;BMP280;70043;51.982;-8.514;2024-02-21T11:26:55;97755.31;;;14.47
80680;BMP280;70043;51.982;-8.514;2024-02-21T11:29:26;97761.22;;;14.47
80680;BMP280;70043;51.982;-8.514;2024-02-21T11:31:55;97758.88;;;14.51
80680;BMP280;70043;51.982;-8.514;2024-02-21T11:34:23;97751.66;;;14.53
80680;BMP280;70043;51.982;-8.514;2024-02-21T11:36:51;97747.78;;;14.55
80680;BMP280;70043;51.982;-8.514;2024-02-21T11:39:19;97750.63;;;14.59
80680;BMP280;70043;51.982;-8.514;2024-02-21T11:41:47;97757.75;;;14.62
80680;BMP280;70043;51.982;-8.514;2024-02-21T11:44:14;97749.03;;;14.63
80680;BMP280;70043;51.982;-8.514;2024-02-21T11:46:41;97766.47;;;14.66
80680;BMP280;70043;51.982;-8.514;2024-02-21T11:49:10;97765.34;;;14.77
80680;BMP280;70043;51.982;-8.514;2024-02-21T11:51:38;97753.03;;;14.79
80680;BMP280;70043;51.982;-8.514;2024-02-21T11:54:06;97752.22;;;14.84
80680;BMP280;70043;51.982;-8.514;2024-02-21T11:56:34;97766.09;;;14.88
80680;BMP280;70043;51.982;-8.514;2024-02-21T11:59:01;97772.97;;;14.92
80680;BMP280;70043;51.982;-8.514;2024-02-21T12:01:28;97784.78;;;14.93
80680;BMP280;70043;51.982;-8.514;2024-02-21T12:03:56;97792.97;;;14.95
80680;BMP280;70043;51.982;-8.514;2024-02-21T12:06:23;97783.91;;;15.03
80680;BMP280;70043;51.982;-8.514;2024-02-21T12:08:51;97783.97;;;14.98
80680;BMP280;70043;51.982;-8.514;2024-02-21T12:11:20;97770.28;;;15.07
80680;BMP280;70043;51.982;-8.514;2024-02-21T12:13:57;97778.97;;;15.12
80680;BMP280;70043;51.982;-8.514;2024-02-21T12:16:27;97777.88;;;15.18
80680;BMP280;70043;51.982;-8.514;2024-02-21T12:18:54;97769.13;;;15.19
80680;BMP280;70043;51.982;-8.514;2024-02-21T12:21:24;97778.34;;;15.25
80680;BMP280;70043;51.982;-8.514;2024-02-21T12:23:52;97778.84;;;15.27
80680;BMP280;70043;51.982;-8.514;2024-02-21T12:26:19;97773.59;;;15.37
80680;BMP280;70043;51.982;-8.514;2024-02-21T12:28:46;97774.84;;;15.44
80680;BMP280;70043;51.982;-8.514;2024-02-21T12:31:13;97771.44;;;15.49
80680;BMP280;70043;51.982;-8.514;2024-02-21T12:33:41;97770.91;;;15.47
80680;BMP280;70043;51.982;-8.514;2024-02-21T12:36:08;97759.41;;;15.44
80680;BMP280;70043;51.982;-8.514;2024-02-21T12:38:36;97767.91;;;15.40
80680;BMP280;70043;51.982;-8.514;2024-02-21T12:41:04;97775.63;;;15.40
80680;BMP280;70043;51.982;-8.514;2024-02-21T12:43:31;97775.09;;;15.43
80680;BMP280;70043;51.982;-8.514;2024-02-21T12:45:58;97765.06;;;15.41
80680;BMP280;70043;51.982;-8.514;2024-02-21T12:48:25;97769.44;;;15.41
80680;BMP280;70043;51.982;-8.514;2024-02-21T12:50:53;97763.78;;;15.44
80680;BMP280;70043;51.982;-8.514;2024-02-21T12:53:20;97761.97;;;15.44
80680;BMP280;70043;51.982;-8.514;2024-02-21T12:55:49;97769.69;;;15.44
80680;BMP280;70043;51.982;-8.514;2024-02-21T12:58:17;97768.59;;;15.45
80680;BMP280;70043;51.982;-8.514;2024-02-21T13:00:44;97770.97;;;15.42
80680;BMP280;70043;51.982;-8.514;2024-02-21T13:03:11;97764.84;;;15.38
80680;BMP280;70043;51.982;-8.514;2024-02-21T13:05:38;97758.75;;;15.34
80680;BMP280;70043;51.982;-8.514;2024-02-21T13:08:05;97758.50;;;15.30
80680;BMP280;70043;51.982;-8.514;2024-02-21T13:10:33;97745.63;;;15.30
80680;BMP280;70043;51.982;-8.514;2024-02-21T13:13:00;97755.44;;;15.28
80680;BMP280;70043;51.982;-8.514;2024-02-21T13:15:29;97741.53;;;15.29
80680;BMP280;70043;51.982;-8.514;2024-02-21T13:17:56;97738.94;;;15.29
80680;BMP280;70043;51.982;-8.514;2024-02-21T13:20:24;97732.00;;;15.30
80680;BMP280;70043;51.982;-8.514;2024-02-21T13:22:52;97734.97;;;15.42
80680;BMP280;70043;51.982;-8.514;2024-02-21T13:25:19;97727.19;;;15.47
80680;BMP280;70043;51.982;-8.514;2024-02-21T13:27:46;97718.13;;;15.54
80680;BMP280;70043;51.982;-8.514;2024-02-21T13:30:14;97728.38;;;15.60
80680;BMP280;70043;51.982;-8.514;2024-02-21T13:32:44;97723.16;;;15.65
80680;BMP280;70043;51.982;-8.514;2024-02-21T13:35:13;97724.06;;;15.74
80680;BMP280;70043;51.982;-8.514;2024-02-21T13:37:41;97725.81;;;15.78
80680;BMP280;70043;51.982;-8.514;2024-02-21T13:40:08;97731.38;;;15.85
80680;BMP280;70043;51.982;-8.514;2024-02-21T13:42:36;97727.47;;;15.69
80680;BMP280;70043;51.982;-8.514;2024-02-21T13:45:03;97733.94;;;15.67
80680;BMP280;70043;51.982;-8.514;2024-02-21T13:47:31;97739.81;;;15.72
80680;BMP280;70043;51.982;-8.514;2024-02-21T13:49:59;97735.75;;;15.66
80680;BMP280;70043;51.982;-8.514;2024-02-21T13:52:26;97731.09;;;15.68
80680;BMP280;70043;51.982;-8.514;2024-02-21T13:54:53;97730.25;;;15.73
80680;BMP280;70043;51.982;-8.514;2024-02-21T13:57:21;97741.00;;;15.80
80680;BMP280;70043;51.982;-8.514;2024-02-21T13:59:48;97727.88;;;15.81